Pagina principale
METAR-TAF:

METAR-TAF

Aeroporti :

Batajnica, Serbia

latitudine: 44-56-07N, longitudine: 020-15-27E, altezza: 86 m

Osservazione

Il bollettino è stato emesso 25 minuti fa, alle 10:00 UTC
Vento 8 kt da est, variando fra nord-est e est/sud-est
Temperature 22°C
Umidità 31%
Pressione 1021 hPa
Visibilità 10 km o più
nessuna nube inferiore a 1500 m e nessun cumulonembo

METAR: LYBT 171000Z 08008KT 040V120 CAVOK 22/04 Q1021 NOSIG

Ora: 12:25 (10:25 UTC)

Previsione

Il bollettino è stato emesso 5 ore e 25 minuti fa, alle 05:00 UTC
Previsione valida dal 17 alle 06 UTC al 18 alle 06 UTC
Vento 6 kt da est/sud-est
Visibilità 10 km o più
nessuna nube inferiore a 1500 m e nessun cumulonembo

TAF: LYBT 170500Z 1706/1806 11006KT CAVOK TX24/1712Z TN05/1805Z

Osservazioni e previsioni meteorologiche di più di 4000 aeroporti (messaggi METAR e TAF).

Le stazioni disponibili sono rappresentate dai dischi gialli e rossi sulla carta.

Puntare il mouse per vedere il nome della stazione.

Clicca sopra per visualizzare le osservazioni e previsioni meteorologiche.

Per cambiare la mappa : fare clic sui pulsanti verdi con una croce nera per ingrandire, il pulsante verde con un trattino per diminuire, o sulla freccia verde per le mappe adiacenti.


METAR-TAF: